Mayflower, Texas
Current Conditions -  °F | °C
As of 2:55 AM on Wednesday 22 Oct 2014 (Local Time) from KJAS Reporting Station
Haze Haze  
Wind Chill: 57°   Ceiling: Unl
Heat Index: 57°   Visibility: 2mi
Dew Point: 57°   Wind: 0mph
Humidity: 97%   Direction: NA
Pressure: 30.08"   Gusts: NA
Location:  31.0751°N, 93.8073°W
Report Text: KJAS 220755Z AUTO 00000KT 2SM BR CLR 14/14 A3008 RMK AO2 T01410137
Loading
Personal Weather Stations






























Interactive Weather Map
Tropical Storm Tracking
New forecast layout! Learn more

10-Day Weather Forecast

Advertisements
Track Severe Weather on mobile